createdAt,value
2023-04-06T00:00:09.578Z,24.27
2023-04-06T00:02:36.654Z,27.87
2023-04-06T00:05:03.714Z,27.87
2023-04-06T00:07:30.687Z,28.47
2023-04-06T00:09:56.989Z,26.40
2023-04-06T00:12:23.304Z,26.00
2023-04-06T00:14:49.692Z,27.83
2023-04-06T00:17:16.046Z,25.53
2023-04-06T00:19:42.592Z,28.13
2023-04-06T00:22:08.981Z,28.83
2023-04-06T00:24:35.313Z,30.40
2023-04-06T00:27:02.452Z,25.87
2023-04-06T00:29:28.855Z,23.07
2023-04-06T00:31:55.442Z,31.10
2023-04-06T00:34:21.933Z,27.97
2023-04-06T00:36:48.254Z,30.10
2023-04-06T00:39:14.606Z,27.47
2023-04-06T00:41:47.521Z,26.97
2023-04-06T00:44:13.889Z,32.77
2023-04-06T00:46:40.255Z,30.57
2023-04-06T00:49:06.808Z,26.37
2023-04-06T00:51:33.366Z,30.50
2023-04-06T00:53:59.716Z,27.57
2023-04-06T00:56:27.119Z,24.77
2023-04-06T00:58:54.536Z,27.17
2023-04-06T01:01:21.097Z,26.60
2023-04-06T01:03:50.897Z,28.00
2023-04-06T01:06:18.355Z,25.77
2023-04-06T01:08:51.471Z,33.40
2023-04-06T01:11:21.077Z,32.87
2023-04-06T01:13:49.282Z,41.57
2023-04-06T01:16:26.694Z,25.97
2023-04-06T01:19:14.187Z,30.90
2023-04-06T01:21:51.510Z,31.77
2023-04-06T01:24:30.358Z,32.23
2023-04-06T01:27:13.073Z,30.23
2023-04-06T01:29:57.808Z,28.77
2023-04-06T01:32:37.582Z,26.03
2023-04-06T01:35:04.320Z,32.93
2023-04-06T01:37:34.423Z,27.03
2023-04-06T01:40:04.658Z,32.47
2023-04-06T01:42:41.850Z,34.33
2023-04-06T01:45:10.275Z,29.93
2023-04-06T01:47:37.366Z,30.03
2023-04-06T01:50:07.006Z,32.13
2023-04-06T01:52:38.315Z,37.90
2023-04-06T01:55:05.042Z,32.73
2023-04-06T01:57:56.713Z,28.27
2023-04-06T02:00:32.543Z,29.37
2023-04-06T02:02:59.155Z,30.30
2023-04-06T02:05:31.180Z,38.43
2023-04-06T02:07:58.250Z,27.77
2023-04-06T02:10:33.539Z,35.50
2023-04-06T02:13:05.972Z,31.90
2023-04-06T02:15:33.120Z,29.17
2023-04-06T02:18:00.399Z,28.83
2023-04-06T02:20:26.887Z,35.43
2023-04-06T02:22:53.279Z,33.37
2023-04-06T02:25:20.441Z,28.43
2023-04-06T02:27:46.750Z,35.07
2023-04-06T02:30:13.284Z,28.20
2023-04-06T02:32:39.742Z,29.40
2023-04-06T02:35:07.081Z,26.63
2023-04-06T02:37:34.657Z,34.33
2023-04-06T02:40:01.109Z,36.10
2023-04-06T02:42:30.265Z,39.63
2023-04-06T02:44:56.778Z,33.80
2023-04-06T02:47:27.138Z,33.03
2023-04-06T02:49:53.636Z,35.63
2023-04-06T02:52:20.101Z,30.27
2023-04-06T02:54:46.714Z,29.70
2023-04-06T02:57:13.414Z,27.80
2023-04-06T02:59:43.913Z,37.33
2023-04-06T03:02:21.165Z,32.03
2023-04-06T03:04:48.306Z,28.10
2023-04-06T03:07:22.950Z,36.87
2023-04-06T03:09:49.496Z,55.67
2023-04-06T03:12:17.600Z,35.70
2023-04-06T03:15:07.636Z,31.10
2023-04-06T03:17:35.373Z,30.80
2023-04-06T03:20:06.142Z,28.77
2023-04-06T03:22:32.856Z,39.10
2023-04-06T03:25:00.993Z,32.27
2023-04-06T03:27:30.122Z,35.10
2023-04-06T03:29:57.064Z,37.90
2023-04-06T03:32:30.766Z,38.77
2023-04-06T03:34:57.134Z,36.13
2023-04-06T03:37:24.609Z,33.87
2023-04-06T03:39:54.758Z,39.03
2023-04-06T03:42:23.802Z,37.83
2023-04-06T03:44:53.754Z,33.37
2023-04-06T03:47:20.491Z,29.70
2023-04-06T03:49:46.834Z,33.60
2023-04-06T03:52:15.217Z,31.47
2023-04-06T03:54:41.597Z,32.47
2023-04-06T03:57:10.643Z,28.97
2023-04-06T03:59:37.040Z,37.33
2023-04-06T04:02:03.387Z,38.03
2023-04-06T04:04:29.885Z,56.87
2023-04-06T04:06:57.093Z,34.57
2023-04-06T04:09:23.497Z,38.27
2023-04-06T04:11:51.058Z,31.97
2023-04-06T04:14:17.408Z,36.87
2023-04-06T04:16:45.465Z,40.43
2023-04-06T04:19:11.835Z,34.43
2023-04-06T04:21:45.960Z,35.90
2023-04-06T04:24:15.051Z,48.23
2023-04-06T04:26:41.668Z,30.40
2023-04-06T04:29:08.588Z,40.53
2023-04-06T04:31:36.943Z,38.10
2023-04-06T04:34:07.759Z,41.17
2023-04-06T04:36:34.448Z,33.60
2023-04-06T04:39:04.482Z,37.80
2023-04-06T04:41:36.258Z,35.37
2023-04-06T04:44:02.963Z,42.40
2023-04-06T04:46:30.155Z,40.53
2023-04-06T04:48:56.748Z,42.70
2023-04-06T04:51:23.334Z,38.23
2023-04-06T04:54:03.888Z,40.33
2023-04-06T04:56:32.340Z,39.23
2023-04-06T04:59:08.913Z,32.90
2023-04-06T05:01:51.774Z,40.43
2023-04-06T05:04:23.262Z,40.73
2023-04-06T05:06:49.841Z,30.00
2023-04-06T05:09:18.621Z,37.27
2023-04-06T05:11:45.253Z,33.90
2023-04-06T05:14:11.857Z,35.10
2023-04-06T05:16:38.328Z,36.20
2023-04-06T05:19:04.840Z,34.63
2023-04-06T05:21:39.059Z,33.03
2023-04-06T05:24:07.869Z,42.37
2023-04-06T05:26:34.543Z,30.00
2023-04-06T05:29:07.361Z,38.83
2023-04-06T05:31:36.749Z,36.07
2023-04-06T05:34:03.319Z,40.13
2023-04-06T05:36:33.904Z,39.80
2023-04-06T05:39:05.273Z,42.97
2023-04-06T05:41:44.586Z,38.23
2023-04-06T05:44:12.608Z,46.50
2023-04-06T05:46:42.729Z,46.73
2023-04-06T05:49:13.890Z,61.10
2023-04-06T05:51:40.436Z,57.50
2023-04-06T05:54:07.445Z,48.27
2023-04-06T05:56:33.947Z,42.03
2023-04-06T05:59:01.500Z,34.13
2023-04-06T06:01:30.026Z,45.40
2023-04-06T06:03:56.445Z,40.50
2023-04-06T06:06:28.514Z,34.80
2023-04-06T06:09:33.229Z,43.73
2023-04-06T06:12:14.746Z,52.87
2023-04-06T06:14:41.526Z,52.17
2023-04-06T06:17:07.904Z,49.30
2023-04-06T06:19:34.557Z,48.83
2023-04-06T06:22:05.906Z,29.70
2023-04-06T06:24:35.408Z,32.03
2023-04-06T06:27:02.057Z,33.47
2023-04-06T06:29:31.649Z,38.23
2023-04-06T06:31:58.803Z,30.07
2023-04-06T06:34:25.347Z,32.93
2023-04-06T06:36:52.884Z,48.23
2023-04-06T06:39:19.513Z,31.63
2023-04-06T06:41:46.054Z,39.87
2023-04-06T06:44:12.628Z,34.63
2023-04-06T06:46:39.954Z,33.00
2023-04-06T06:49:06.475Z,49.03
2023-04-06T06:51:32.855Z,36.63
2023-04-06T06:54:01.333Z,30.20
2023-04-06T06:56:28.806Z,32.50
2023-04-06T06:58:55.840Z,30.70
2023-04-06T07:01:22.488Z,33.70
2023-04-06T07:03:49.084Z,25.53
2023-04-06T07:06:15.717Z,29.70
2023-04-06T07:08:42.207Z,28.97
2023-04-06T07:11:08.579Z,28.33
2023-04-06T07:13:34.962Z,29.23
2023-04-06T07:16:02.465Z,27.70
2023-04-06T07:18:29.478Z,40.17
2023-04-06T07:20:56.060Z,32.23
2023-04-06T07:23:22.432Z,32.07
2023-04-06T07:25:48.864Z,20.83
2023-04-06T07:28:15.238Z,24.30
2023-04-06T07:30:43.220Z,21.47
2023-04-06T07:33:11.108Z,21.80
2023-04-06T07:35:38.143Z,20.10
2023-04-06T07:38:06.157Z,21.27
2023-04-06T07:40:33.998Z,21.57
2023-04-06T07:43:00.557Z,17.93
2023-04-06T07:45:27.320Z,25.30
2023-04-06T07:47:54.205Z,19.20
2023-04-06T07:50:21.403Z,25.53
2023-04-06T07:52:48.013Z,19.63
2023-04-06T07:55:15.297Z,21.07
2023-04-06T07:57:41.697Z,16.33
2023-04-06T08:00:09.985Z,19.47
2023-04-06T08:02:39.355Z,22.30
2023-04-06T08:05:06.732Z,23.57
2023-04-06T08:07:33.283Z,20.27
2023-04-06T08:09:59.636Z,21.37
2023-04-06T08:12:25.982Z,22.30
2023-04-06T08:14:52.370Z,18.70
2023-04-06T08:17:18.744Z,19.67
2023-04-06T08:19:45.311Z,18.80
2023-04-06T08:22:12.176Z,20.87
2023-04-06T08:24:38.858Z,23.13
2023-04-06T08:27:05.235Z,23.57
2023-04-06T08:29:31.629Z,19.17
2023-04-06T08:31:58.016Z,22.80
2023-04-06T08:34:24.936Z,20.60
2023-04-06T08:36:51.406Z,24.73
2023-04-06T08:39:17.890Z,27.83
2023-04-06T08:41:45.022Z,29.53
2023-04-06T08:44:12.413Z,19.27
2023-04-06T08:46:38.829Z,19.60
2023-04-06T08:49:08.207Z,16.70
2023-04-06T08:51:35.826Z,17.07
2023-04-06T08:54:02.196Z,17.47
2023-04-06T08:56:29.867Z,16.67
2023-04-06T08:58:57.220Z,19.03
2023-04-06T09:01:28.519Z,20.07
2023-04-06T09:04:01.114Z,18.70
2023-04-06T09:06:31.715Z,21.27
2023-04-06T09:08:58.975Z,22.07
2023-04-06T09:11:26.093Z,17.07
2023-04-06T09:13:54.914Z,26.93
2023-04-06T09:16:22.045Z,23.07
2023-04-06T09:18:48.830Z,23.80
2023-04-06T09:21:19.237Z,25.87
2023-04-06T09:23:45.884Z,23.80
2023-04-06T09:26:14.110Z,16.27
2023-04-06T09:28:47.872Z,21.93
2023-04-06T09:31:23.306Z,32.57
2023-04-06T09:33:49.682Z,19.60
2023-04-06T09:36:18.974Z,18.73
2023-04-06T09:39:01.420Z,22.13
2023-04-06T09:41:29.954Z,21.63
2023-04-06T09:44:11.076Z,21.73
2023-04-06T09:46:58.013Z,30.60
2023-04-06T09:49:31.944Z,28.43
2023-04-06T09:52:01.022Z,25.47
2023-04-06T09:54:30.708Z,21.50
2023-04-06T09:57:22.946Z,19.47
2023-04-06T10:00:11.980Z,25.27
2023-04-06T10:02:57.153Z,32.83
2023-04-06T10:05:33.298Z,32.43
2023-04-06T10:08:06.414Z,26.83
2023-04-06T10:10:32.775Z,19.77
2023-04-06T10:12:59.655Z,24.23
2023-04-06T10:15:26.553Z,28.63
2023-04-06T10:17:53.363Z,26.23
2023-04-06T10:20:30.159Z,26.40
2023-04-06T10:23:02.936Z,23.67
2023-04-06T10:25:33.892Z,19.57
2023-04-06T10:28:01.974Z,25.67
2023-04-06T10:30:29.326Z,22.87
2023-04-06T10:32:55.949Z,22.10
2023-04-06T10:35:22.347Z,28.43
2023-04-06T10:38:00.961Z,27.37
2023-04-06T10:40:28.368Z,24.27
2023-04-06T10:42:56.427Z,22.50
2023-04-06T10:45:26.780Z,30.33
2023-04-06T10:47:54.457Z,25.63
2023-04-06T10:50:21.755Z,30.07
2023-04-06T10:52:58.820Z,26.57
2023-04-06T10:55:27.525Z,24.20
2023-04-06T10:57:53.998Z,25.50
2023-04-06T11:00:20.770Z,21.53
2023-04-06T11:02:48.515Z,27.83
2023-04-06T11:05:15.839Z,33.67
2023-04-06T11:07:42.427Z,31.10
2023-04-06T11:12:38.925Z,35.77
2023-04-06T11:15:06.746Z,28.93
2023-04-06T11:17:36.715Z,34.87
2023-04-06T11:20:05.023Z,32.67
2023-04-06T11:22:32.330Z,31.63
2023-04-06T11:27:40.808Z,25.83
2023-04-06T11:30:10.076Z,20.67
2023-04-06T11:32:44.482Z,22.13
2023-04-06T11:35:24.102Z,26.03
2023-04-06T11:37:51.530Z,24.67
2023-04-06T11:40:24.614Z,26.83
2023-04-06T11:42:55.259Z,24.37
2023-04-06T11:45:22.121Z,19.00
2023-04-06T11:47:58.267Z,24.77
2023-04-06T11:50:24.695Z,18.83
2023-04-06T11:53:01.157Z,21.63
2023-04-06T11:55:27.832Z,16.83
2023-04-06T11:57:54.267Z,22.03
2023-04-06T12:00:21.620Z,31.93
2023-04-06T12:02:49.326Z,23.20
2023-04-06T12:05:15.817Z,20.20
2023-04-06T12:10:13.632Z,22.40
2023-04-06T12:12:40.288Z,19.03
2023-04-06T12:15:07.513Z,17.63
2023-04-06T12:17:34.034Z,16.87
2023-04-06T12:20:05.282Z,20.90
2023-04-06T12:22:35.936Z,21.10
2023-04-06T12:25:02.286Z,20.93
2023-04-06T12:27:28.672Z,19.80
2023-04-06T12:29:55.013Z,25.20
2023-04-06T12:32:21.414Z,22.97
2023-04-06T12:34:47.902Z,19.87
2023-04-06T12:37:14.201Z,20.30
2023-04-06T12:39:40.605Z,23.57
2023-04-06T12:42:06.930Z,19.90
2023-04-06T12:44:33.357Z,19.70
2023-04-06T12:46:59.764Z,27.20
2023-04-06T12:49:26.732Z,19.70
2023-04-06T12:51:53.078Z,37.67
2023-04-06T12:54:19.381Z,26.60
2023-04-06T12:56:45.815Z,23.23
2023-04-06T12:59:12.274Z,31.53
2023-04-06T13:01:38.695Z,39.00
2023-04-06T13:04:05.053Z,27.17
2023-04-06T13:06:31.485Z,26.00
2023-04-06T13:08:57.868Z,23.30
2023-04-06T13:11:27.144Z,23.97
2023-04-06T13:13:55.016Z,23.20
2023-04-06T13:16:21.562Z,31.43
2023-04-06T13:18:47.957Z,28.77
2023-04-06T13:21:16.985Z,22.47
2023-04-06T13:23:43.997Z,29.73
2023-04-06T13:26:10.509Z,24.47
2023-04-06T13:28:39.581Z,23.10
2023-04-06T13:31:07.265Z,25.53
2023-04-06T13:33:33.750Z,24.80
2023-04-06T13:36:00.365Z,29.87
2023-04-06T13:38:27.073Z,28.63
2023-04-06T13:40:53.447Z,15.37
2023-04-06T13:43:23.211Z,17.50
2023-04-06T13:45:51.815Z,27.50
2023-04-06T13:48:18.612Z,16.07
2023-04-06T13:50:45.119Z,19.90
2023-04-06T13:53:11.449Z,19.27
2023-04-06T13:55:37.946Z,16.53
2023-04-06T13:58:04.322Z,20.07
2023-04-06T14:00:30.728Z,16.90
2023-04-06T14:02:57.352Z,17.03
2023-04-06T14:05:24.618Z,17.87
2023-04-06T14:07:51.524Z,18.03
2023-04-06T14:10:17.943Z,23.93
2023-04-06T14:12:47.620Z,25.80
2023-04-06T14:15:14.004Z,17.93
2023-04-06T14:17:40.626Z,21.17
2023-04-06T14:20:08.040Z,19.17
2023-04-06T14:22:34.417Z,17.63
2023-04-06T14:25:00.814Z,26.70
2023-04-06T14:27:27.124Z,20.27
2023-04-06T14:29:54.838Z,17.93
2023-04-06T14:32:22.244Z,16.40
2023-04-06T14:34:48.651Z,16.47
2023-04-06T14:37:15.519Z,18.43
2023-04-06T14:39:41.893Z,17.53
2023-04-06T14:42:08.219Z,14.30
2023-04-06T14:44:37.447Z,14.70
2023-04-06T14:47:06.283Z,15.27
2023-04-06T14:49:33.390Z,15.03
2023-04-06T14:52:00.425Z,14.40
2023-04-06T14:54:26.850Z,20.67
2023-04-06T14:56:53.203Z,16.57
2023-04-06T14:59:19.572Z,16.23
2023-04-06T15:01:46.178Z,15.47
2023-04-06T15:04:12.783Z,16.77
2023-04-06T15:06:39.156Z,15.87
2023-04-06T15:09:05.542Z,13.43
2023-04-06T15:11:31.869Z,17.27
2023-04-06T15:13:58.229Z,13.83
2023-04-06T15:16:24.668Z,21.27
2023-04-06T15:18:51.097Z,33.70
2023-04-06T15:21:18.416Z,12.37
2023-04-06T15:23:44.903Z,13.67
2023-04-06T15:26:11.253Z,14.00
2023-04-06T15:28:37.653Z,13.60
2023-04-06T15:31:06.975Z,14.30
2023-04-06T15:33:33.503Z,13.57
2023-04-06T15:35:59.843Z,14.70
2023-04-06T15:38:26.520Z,12.67
2023-04-06T15:40:52.910Z,13.17
2023-04-06T15:43:19.261Z,13.53
2023-04-06T15:45:45.603Z,14.97
2023-04-06T15:48:11.967Z,13.60
2023-04-06T15:50:38.385Z,12.83
2023-04-06T15:53:04.741Z,14.93
2023-04-06T15:55:31.138Z,11.57
2023-04-06T15:57:57.519Z,11.90
2023-04-06T16:00:25.204Z,16.27
2023-04-06T16:02:51.736Z,11.03
2023-04-06T16:05:18.148Z,11.83
2023-04-06T16:07:44.455Z,11.37
2023-04-06T16:10:11.670Z,8.70
2023-04-06T16:12:39.941Z,8.60
2023-04-06T16:15:07.094Z,9.93
2023-04-06T16:17:33.548Z,8.93
2023-04-06T16:19:59.878Z,8.00
2023-04-06T16:22:28.493Z,8.13
2023-04-06T16:24:54.817Z,7.83
2023-04-06T16:27:21.200Z,8.73
2023-04-06T16:29:47.529Z,9.10
2023-04-06T16:32:13.922Z,8.13
2023-04-06T16:34:40.484Z,11.57
2023-04-06T16:37:06.824Z,9.83
2023-04-06T16:39:33.208Z,10.80
2023-04-06T16:42:01.012Z,11.60
2023-04-06T16:44:29.404Z,10.67
2023-04-06T16:46:56.384Z,11.03
2023-04-06T16:49:22.967Z,11.30
2023-04-06T16:51:49.703Z,10.97
2023-04-06T16:54:16.522Z,10.00
2023-04-06T16:56:42.958Z,10.30
2023-04-06T16:59:09.546Z,10.77
2023-04-06T17:01:36.004Z,10.40
2023-04-06T17:04:02.518Z,10.67
2023-04-06T17:06:29.039Z,11.40
2023-04-06T17:08:55.604Z,11.00
2023-04-06T17:11:28.023Z,9.70
2023-04-06T17:13:55.094Z,11.10
2023-04-06T17:16:21.553Z,17.47
2023-04-06T17:18:47.907Z,10.60
2023-04-06T17:21:14.537Z,10.27
2023-04-06T17:23:41.570Z,10.10
2023-04-06T17:26:08.093Z,10.43
2023-04-06T17:28:34.586Z,10.47
2023-04-06T17:31:01.123Z,10.20
2023-04-06T17:33:28.117Z,9.33
2023-04-06T17:35:55.035Z,9.40
2023-04-06T17:38:21.441Z,8.70
2023-04-06T17:40:47.823Z,9.47
2023-04-06T17:43:14.211Z,10.17
2023-04-06T17:45:40.681Z,10.27
2023-04-06T17:48:07.674Z,9.87
2023-04-06T17:50:38.989Z,9.33
2023-04-06T17:53:05.987Z,10.33
2023-04-06T17:55:32.315Z,9.97
2023-04-06T17:57:58.629Z,11.63
2023-04-06T18:00:25.585Z,10.27
2023-04-06T18:02:53.366Z,9.80
2023-04-06T18:05:20.740Z,10.43
2023-04-06T18:07:47.815Z,11.83
2023-04-06T18:10:14.265Z,11.53
2023-04-06T18:12:40.812Z,11.23
2023-04-06T18:15:07.553Z,11.73
2023-04-06T18:17:34.442Z,15.33
2023-04-06T18:20:01.231Z,13.37
2023-04-06T18:22:28.355Z,20.30
2023-04-06T18:24:54.839Z,12.57
2023-04-06T18:27:21.556Z,13.20
2023-04-06T18:29:47.945Z,20.07
2023-04-06T18:32:18.160Z,23.13
2023-04-06T18:34:45.363Z,28.30
2023-04-06T18:37:12.654Z,21.70
2023-04-06T18:39:39.127Z,27.63
2023-04-06T18:42:05.746Z,14.47
2023-04-06T18:44:32.130Z,13.13
2023-04-06T18:46:58.923Z,11.60
2023-04-06T18:49:25.333Z,13.67
2023-04-06T18:51:53.464Z,11.97
2023-04-06T18:54:20.226Z,13.20
2023-04-06T18:56:47.934Z,11.63
2023-04-06T18:59:14.396Z,11.27
2023-04-06T19:01:43.933Z,11.47
2023-04-06T19:04:11.481Z,12.70
2023-04-06T19:06:38.205Z,14.53
2023-04-06T19:09:04.886Z,13.87
2023-04-06T19:11:32.247Z,14.17
2023-04-06T19:13:58.768Z,13.20
2023-04-06T19:16:27.187Z,14.00
2023-04-06T19:18:53.614Z,13.80
2023-04-06T19:21:24.311Z,14.50
2023-04-06T19:23:52.501Z,19.90
2023-04-06T19:26:20.780Z,15.33
2023-04-06T19:28:47.454Z,14.90
2023-04-06T19:31:16.330Z,14.87
2023-04-06T19:33:44.558Z,15.43
2023-04-06T19:36:11.217Z,15.33
2023-04-06T19:38:37.933Z,14.23
2023-04-06T19:41:04.741Z,15.27
2023-04-06T19:43:31.094Z,16.63
2023-04-06T19:45:57.709Z,17.43
2023-04-06T19:48:24.099Z,17.63
2023-04-06T19:50:54.650Z,20.17
2023-04-06T19:53:23.891Z,15.13
2023-04-06T19:55:50.661Z,14.53
2023-04-06T19:58:17.299Z,19.13
2023-04-06T20:00:43.715Z,15.30
2023-04-06T20:03:10.461Z,14.93
2023-04-06T20:05:36.897Z,13.07
2023-04-06T20:08:03.293Z,12.13
2023-04-06T20:10:29.687Z,11.50
2023-04-06T20:12:56.023Z,12.70
2023-04-06T20:15:23.027Z,13.83
2023-04-06T20:17:49.425Z,12.70
2023-04-06T20:20:16.050Z,15.87
2023-04-06T20:22:42.357Z,12.50
2023-04-06T20:25:10.272Z,12.50
2023-04-06T20:27:36.725Z,13.53
2023-04-06T20:30:03.464Z,13.83
2023-04-06T20:32:29.850Z,15.17
2023-04-06T20:34:56.562Z,12.97
2023-04-06T20:37:23.016Z,15.83
2023-04-06T20:39:49.341Z,14.10
2023-04-06T20:42:16.323Z,13.07
2023-04-06T20:44:42.704Z,13.33
2023-04-06T20:47:09.017Z,15.53
2023-04-06T20:49:35.601Z,15.93
2023-04-06T20:52:02.118Z,13.30
2023-04-06T20:54:29.497Z,12.67
2023-04-06T20:56:59.534Z,16.03
2023-04-06T20:59:27.017Z,17.63
2023-04-06T21:01:53.412Z,14.37
2023-04-06T21:04:22.498Z,24.03
2023-04-06T21:06:49.485Z,18.00
2023-04-06T21:09:16.495Z,17.47
2023-04-06T21:11:42.862Z,23.70
2023-04-06T21:14:09.299Z,26.23
2023-04-06T21:16:36.434Z,23.77
2023-04-06T21:19:02.803Z,25.60
2023-04-06T21:21:29.164Z,24.10
2023-04-06T21:23:56.370Z,15.10
2023-04-06T21:26:22.691Z,14.93
2023-04-06T21:28:49.016Z,12.73
2023-04-06T21:31:16.500Z,15.30
2023-04-06T21:33:42.961Z,13.37
2023-04-06T21:36:09.537Z,11.20
2023-04-06T21:38:36.080Z,10.77
2023-04-06T21:41:02.416Z,10.67
2023-04-06T21:43:28.815Z,10.67
2023-04-06T21:45:55.225Z,11.33
2023-04-06T21:48:21.655Z,10.33
2023-04-06T21:50:48.040Z,13.90
2023-04-06T21:53:14.403Z,13.13
2023-04-06T21:55:45.212Z,11.00
2023-04-06T21:58:12.340Z,11.43
2023-04-06T22:00:39.518Z,11.43
2023-04-06T22:03:06.837Z,12.13
2023-04-06T22:05:33.476Z,12.17
2023-04-06T22:08:01.989Z,13.47
2023-04-06T22:10:29.364Z,19.40
2023-04-06T22:12:55.772Z,19.30
2023-04-06T22:15:22.217Z,15.63
2023-04-06T22:17:48.607Z,19.70
2023-04-06T22:20:14.981Z,16.47
2023-04-06T22:22:41.978Z,16.67
2023-04-06T22:25:08.804Z,17.63
2023-04-06T22:27:35.433Z,19.53
2023-04-06T22:30:02.325Z,14.83
2023-04-06T22:32:28.775Z,14.93
2023-04-06T22:34:55.280Z,16.30
2023-04-06T22:37:21.667Z,15.60
2023-04-06T22:39:48.086Z,15.17
2023-04-06T22:42:14.395Z,17.43
2023-04-06T22:44:40.800Z,16.90
2023-04-06T22:47:07.274Z,17.43
2023-04-06T22:49:33.714Z,17.73
2023-04-06T22:52:00.203Z,22.20
2023-04-06T22:54:26.521Z,22.80
2023-04-06T22:56:52.937Z,20.47
2023-04-06T22:59:19.306Z,25.10
2023-04-06T23:01:45.758Z,27.83
2023-04-06T23:04:12.193Z,26.83
2023-04-06T23:06:38.579Z,30.00
2023-04-06T23:09:04.911Z,26.77
2023-04-06T23:11:31.242Z,19.20
2023-04-06T23:13:57.560Z,23.23
2023-04-06T23:16:23.993Z,27.20
2023-04-06T23:18:50.655Z,21.27
2023-04-06T23:21:17.424Z,19.90
2023-04-06T23:23:43.780Z,19.47
2023-04-06T23:26:10.586Z,19.57
2023-04-06T23:28:36.887Z,19.30
2023-04-06T23:31:03.256Z,22.23
2023-04-06T23:33:29.575Z,21.37
2023-04-06T23:35:56.100Z,20.03
2023-04-06T23:38:22.454Z,19.60
2023-04-06T23:40:48.882Z,19.50
2023-04-06T23:43:15.311Z,23.47
2023-04-06T23:45:42.510Z,19.13
2023-04-06T23:48:09.779Z,19.30
2023-04-06T23:50:36.900Z,19.87
2023-04-06T23:53:04.247Z,19.57
2023-04-06T23:55:30.847Z,19.67
2023-04-06T23:57:57.239Z,21.43
